createdAt,value
2022-09-06T00:01:30.236Z,100723.56
2022-09-06T00:04:02.644Z,100742.03
2022-09-06T00:06:34.398Z,100760.00
2022-09-06T00:09:07.942Z,100771.94
2022-09-06T00:11:41.498Z,100768.56
2022-09-06T00:14:13.646Z,100783.72
2022-09-06T00:16:45.235Z,100789.06
2022-09-06T00:19:17.362Z,100801.00
2022-09-06T00:21:49.469Z,100782.34
2022-09-06T00:24:21.770Z,100813.22
2022-09-06T00:26:53.343Z,100814.63
2022-09-06T00:29:25.346Z,100792.09
2022-09-06T00:31:57.730Z,100813.47
2022-09-06T00:34:29.725Z,100827.72
2022-09-06T00:37:02.101Z,100805.59
2022-09-06T00:39:34.315Z,100834.19
2022-09-06T00:42:10.859Z,100839.78
2022-09-06T00:44:43.031Z,100827.13
2022-09-06T00:47:15.647Z,100840.41
2022-09-06T00:49:52.425Z,100840.16
2022-09-06T00:52:25.686Z,100849.72
2022-09-06T00:54:58.923Z,100852.44
2022-09-06T00:57:33.606Z,100855.78
2022-09-06T01:00:09.944Z,100783.38
2022-09-06T01:02:42.142Z,100861.19
2022-09-06T01:05:15.473Z,100861.19
2022-09-06T01:08:04.694Z,100867.66
2022-09-06T01:11:27.344Z,100860.03
2022-09-06T01:14:11.793Z,100883.69
2022-09-06T01:17:07.753Z,100874.94
2022-09-06T01:20:25.452Z,100866.47
2022-09-06T01:23:18.801Z,100809.59
2022-09-06T01:26:24.738Z,100893.66
2022-09-06T01:28:57.345Z,100898.59
2022-09-06T01:32:24.829Z,100888.03
2022-09-06T01:35:07.618Z,100890.09
2022-09-06T01:37:39.999Z,100900.69
2022-09-06T01:40:12.498Z,100906.72
2022-09-06T01:42:48.085Z,100843.78
2022-09-06T01:45:23.560Z,100899.59
2022-09-06T01:48:15.322Z,100897.19
2022-09-06T01:51:06.031Z,100897.34
2022-09-06T01:53:47.161Z,100883.56
2022-09-06T01:56:48.210Z,100883.13
2022-09-06T01:59:49.365Z,100822.75
2022-09-06T02:02:33.840Z,100885.25
2022-09-06T02:05:24.392Z,100891.00
2022-09-06T02:08:19.043Z,100889.97
2022-09-06T02:11:05.335Z,100878.09
2022-09-06T02:13:52.724Z,100808.81
2022-09-06T02:16:28.864Z,100889.72
2022-09-06T02:19:22.135Z,100884.72
2022-09-06T02:21:56.339Z,100821.25
2022-09-06T02:24:33.474Z,100803.75
2022-09-06T02:27:06.261Z,100884.84
2022-09-06T02:29:38.697Z,100868.06
2022-09-06T02:32:10.237Z,100878.16
2022-09-06T02:34:44.034Z,100882.97
2022-09-06T02:37:18.405Z,100808.66
2022-09-06T02:39:50.646Z,100875.44
2022-09-06T02:42:24.819Z,100874.16
2022-09-06T02:44:57.228Z,100867.69
2022-09-06T02:47:29.416Z,100853.56
2022-09-06T02:50:02.337Z,100867.88
2022-09-06T02:52:34.913Z,100869.53
2022-09-06T02:55:07.660Z,100847.09
2022-09-06T02:57:39.890Z,100858.84
2022-09-06T03:00:12.664Z,100858.63
2022-09-06T03:02:44.900Z,100855.47
2022-09-06T03:05:17.440Z,100844.88
2022-09-06T03:07:49.708Z,100858.56
2022-09-06T03:10:22.511Z,100802.94
2022-09-06T03:12:55.445Z,100847.06
2022-09-06T03:15:27.566Z,100838.13
2022-09-06T03:18:01.313Z,100762.63
2022-09-06T03:20:37.009Z,100836.16
2022-09-06T03:23:09.529Z,100840.09
2022-09-06T03:25:42.022Z,100795.13
2022-09-06T03:28:14.553Z,100830.47
2022-09-06T03:30:51.358Z,100824.59
2022-09-06T03:33:24.383Z,100812.56
2022-09-06T03:36:01.820Z,100811.19
2022-09-06T03:38:33.972Z,100789.22
2022-09-06T03:41:06.154Z,100800.97
2022-09-06T03:43:38.354Z,100755.13
2022-09-06T03:46:10.594Z,100781.63
2022-09-06T03:48:42.846Z,100775.38
2022-09-06T03:51:14.926Z,100783.63
2022-09-06T03:53:47.593Z,100768.66
2022-09-06T03:56:19.679Z,100790.47
2022-09-06T03:58:51.849Z,100770.28
2022-09-06T04:01:24.106Z,100769.38
2022-09-06T04:03:56.339Z,100764.09
2022-09-06T04:06:29.529Z,100759.28
2022-09-06T04:09:01.669Z,100758.22
2022-09-06T04:11:33.976Z,100747.16
2022-09-06T04:14:06.241Z,100748.59
2022-09-06T04:16:38.627Z,100740.44
2022-09-06T04:19:10.889Z,100728.38
2022-09-06T04:21:43.046Z,100726.06
2022-09-06T04:24:15.199Z,100722.66
2022-09-06T04:26:47.290Z,100729.88
2022-09-06T04:29:19.396Z,100721.72
2022-09-06T04:31:51.609Z,100716.91
2022-09-06T04:34:23.862Z,100708.06
2022-09-06T04:36:56.068Z,100707.28
2022-09-06T04:39:28.212Z,100701.84
2022-09-06T04:42:00.303Z,100703.50
2022-09-06T04:44:32.429Z,100695.34
2022-09-06T04:47:14.121Z,100618.31
2022-09-06T04:49:46.812Z,100680.16
2022-09-06T04:52:19.655Z,100674.25
2022-09-06T04:54:51.874Z,100667.63
2022-09-06T04:57:24.031Z,100670.47
2022-09-06T04:59:56.192Z,100667.56
2022-09-06T05:02:29.158Z,100658.47
2022-09-06T05:05:01.260Z,100639.09
2022-09-06T05:07:33.354Z,100648.31
2022-09-06T05:10:05.658Z,100651.41
2022-09-06T05:12:42.076Z,100634.88
2022-09-06T05:15:16.209Z,100644.91
2022-09-06T05:17:48.919Z,100643.63
2022-09-06T05:20:21.192Z,100639.03
2022-09-06T05:22:56.196Z,100637.78
2022-09-06T05:25:28.325Z,100640.47
2022-09-06T05:28:00.697Z,100620.72
2022-09-06T05:30:32.690Z,100634.59
2022-09-06T05:33:04.261Z,100628.13
2022-09-06T05:35:36.430Z,100626.91
2022-09-06T05:38:08.554Z,100629.75
2022-09-06T05:40:40.944Z,100623.25
2022-09-06T05:43:13.374Z,100613.00
2022-09-06T05:45:46.742Z,100614.66
2022-09-06T05:48:21.132Z,100600.03
2022-09-06T05:51:02.580Z,100597.97
2022-09-06T05:54:00.993Z,100583.97
2022-09-06T05:56:33.133Z,100581.06
2022-09-06T05:59:05.881Z,100570.19
2022-09-06T06:01:38.085Z,100546.59
2022-09-06T06:04:11.033Z,100571.97
2022-09-06T06:06:43.149Z,100554.03
2022-09-06T06:09:15.735Z,100556.84
2022-09-06T06:11:48.268Z,100551.44
2022-09-06T06:14:20.428Z,100556.38
2022-09-06T06:16:53.455Z,100552.63
2022-09-06T06:19:25.525Z,100546.00
2022-09-06T06:21:59.789Z,100537.50
2022-09-06T06:24:31.947Z,100534.56
2022-09-06T06:27:04.302Z,100532.06
2022-09-06T06:29:36.926Z,100514.63
2022-09-06T06:32:09.089Z,100529.47
2022-09-06T06:34:41.248Z,100530.06
2022-09-06T06:37:13.443Z,100510.03
2022-09-06T06:39:45.642Z,100529.00
2022-09-06T06:42:17.879Z,100526.88
2022-09-06T06:44:57.283Z,100512.03
2022-09-06T06:47:29.319Z,100512.22
2022-09-06T06:50:01.476Z,100518.84
2022-09-06T06:52:33.892Z,100508.81
2022-09-06T06:55:07.405Z,100515.66
2022-09-06T06:57:39.682Z,100508.09
2022-09-06T07:00:12.628Z,100503.81
2022-09-06T07:02:45.382Z,100501.13
2022-09-06T07:08:13.396Z,100495.00
2022-09-06T07:10:45.544Z,100489.31
2022-09-06T07:13:17.894Z,100481.16
2022-09-06T07:15:50.191Z,100490.50
2022-09-06T07:18:22.374Z,100486.13
2022-09-06T07:26:40.841Z,100449.66
2022-09-06T07:29:13.100Z,100468.97
2022-09-06T07:34:39.239Z,100458.19
2022-09-06T07:37:11.662Z,100453.84
2022-09-06T07:39:44.142Z,100448.50
2022-09-06T07:42:17.724Z,100443.31
2022-09-06T07:44:49.902Z,100435.16
2022-09-06T07:53:12.684Z,100450.34
2022-09-06T07:55:49.665Z,100436.06
2022-09-06T07:58:21.857Z,100420.59
2022-09-06T08:00:54.052Z,100430.34
2022-09-06T08:03:26.348Z,100415.03
2022-09-06T08:06:13.717Z,100385.25
2022-09-06T08:09:01.185Z,100431.00
2022-09-06T08:11:35.374Z,100373.69
2022-09-06T08:14:10.008Z,100311.88
2022-09-06T08:16:42.363Z,100423.09
2022-09-06T08:19:16.206Z,100436.66
2022-09-06T08:21:48.480Z,100419.09
2022-09-06T08:24:23.753Z,100431.69
2022-09-06T08:26:56.100Z,100454.44
2022-09-06T08:29:32.468Z,100458.56
2022-09-06T08:32:04.993Z,100467.31
2022-09-06T08:34:37.115Z,100462.19
2022-09-06T08:37:09.770Z,100463.81
2022-09-06T08:39:41.973Z,100470.44
2022-09-06T08:42:14.801Z,100471.25
2022-09-06T08:47:31.716Z,100482.63
2022-09-06T08:50:08.417Z,100444.22
2022-09-06T08:53:23.817Z,100485.94
2022-09-06T08:56:25.606Z,100505.94
2022-09-06T08:59:09.330Z,100467.72
2022-09-06T09:01:55.676Z,100458.75
2022-09-06T09:04:32.345Z,100346.94
2022-09-06T09:07:21.102Z,100466.47
2022-09-06T09:09:56.789Z,100464.59
2022-09-06T09:12:32.453Z,100473.16
2022-09-06T09:15:11.376Z,100470.53
2022-09-06T09:17:45.021Z,100461.63
2022-09-06T09:20:17.325Z,100460.56
2022-09-06T09:22:50.476Z,100446.03
2022-09-06T09:25:26.056Z,100447.69
2022-09-06T09:27:59.224Z,100456.66
2022-09-06T09:30:55.138Z,100473.78
2022-09-06T09:33:37.340Z,100495.44
2022-09-06T09:36:15.651Z,100524.91
2022-09-06T09:38:54.391Z,100471.00
2022-09-06T09:41:32.178Z,100534.72
2022-09-06T09:44:29.600Z,100534.56
2022-09-06T09:47:01.813Z,100530.44
2022-09-06T09:49:34.772Z,100550.84
2022-09-06T09:52:15.686Z,100575.69
2022-09-06T09:54:49.278Z,100597.16
2022-09-06T09:57:21.824Z,100593.63
2022-09-06T10:00:04.926Z,100581.38
2022-09-06T10:02:42.409Z,100570.50
2022-09-06T10:05:14.484Z,100587.50
2022-09-06T10:07:59.162Z,100575.25
2022-09-06T10:10:48.400Z,100602.63
2022-09-06T10:13:31.803Z,100605.22
2022-09-06T10:16:07.484Z,100606.88
2022-09-06T10:18:41.508Z,100605.22
2022-09-06T10:21:26.606Z,100599.78
2022-09-06T10:27:04.680Z,100618.00
2022-09-06T10:29:54.465Z,100571.50
2022-09-06T10:32:49.373Z,100515.78
2022-09-06T10:35:33.714Z,100634.16
2022-09-06T10:38:24.402Z,100661.91
2022-09-06T10:40:59.275Z,100676.97
2022-09-06T10:43:46.977Z,100679.94
2022-09-06T10:46:24.194Z,100669.78
2022-09-06T10:48:56.671Z,100668.72
2022-09-06T10:51:47.066Z,100617.72
2022-09-06T10:54:25.342Z,100626.44
2022-09-06T10:57:05.310Z,100694.22
2022-09-06T10:59:46.205Z,100625.03
2022-09-06T11:02:19.345Z,100699.03
2022-09-06T11:10:46.895Z,100722.66
2022-09-06T11:13:21.873Z,100627.44
2022-09-06T11:16:05.843Z,100643.19
2022-09-06T11:18:49.703Z,100713.56
2022-09-06T11:21:48.950Z,100735.28
2022-09-06T11:24:47.940Z,100748.13
2022-09-06T11:27:40.916Z,100764.44
2022-09-06T11:30:18.528Z,100688.44
2022-09-06T11:33:24.234Z,100685.56
2022-09-06T11:36:16.732Z,100773.13
2022-09-06T11:39:00.336Z,100790.97
2022-09-06T11:41:40.050Z,100744.69
2022-09-06T11:44:12.755Z,100820.56
2022-09-06T11:46:44.924Z,100832.28
2022-09-06T11:49:38.732Z,100767.41
2022-09-06T11:52:52.547Z,100819.09
2022-09-06T11:55:31.784Z,100786.19
2022-09-06T11:58:28.598Z,100722.94
2022-09-06T12:01:20.252Z,100804.72
2022-09-06T12:04:05.375Z,100813.22
2022-09-06T12:07:05.773Z,100752.78
2022-09-06T12:09:45.156Z,100768.59
2022-09-06T12:12:41.492Z,100799.16
2022-09-06T12:16:02.658Z,100801.88
2022-09-06T12:18:50.305Z,100808.59
2022-09-06T12:21:44.367Z,100717.56
2022-09-06T12:24:39.940Z,100830.34
2022-09-06T12:27:19.399Z,100835.31
2022-09-06T12:30:05.795Z,100848.75
2022-09-06T12:32:48.836Z,100823.53
2022-09-06T12:38:25.856Z,100859.44
2022-09-06T12:41:00.452Z,100868.03
2022-09-06T12:43:37.561Z,100812.09
2022-09-06T12:46:09.891Z,100876.38
2022-09-06T12:48:45.822Z,100883.91
2022-09-06T12:51:25.022Z,100872.16
2022-09-06T12:54:03.384Z,100888.97
2022-09-06T12:56:36.403Z,100881.88
2022-09-06T12:59:18.542Z,100876.31
2022-09-06T13:01:58.280Z,100886.06
2022-09-06T13:04:42.299Z,100891.97
2022-09-06T13:07:19.507Z,100892.88
2022-09-06T13:09:55.591Z,100896.78
2022-09-06T13:12:31.067Z,100908.22
2022-09-06T13:15:21.572Z,100900.38
2022-09-06T13:17:55.586Z,100860.88
2022-09-06T13:20:31.482Z,100848.84
2022-09-06T13:23:12.827Z,100828.56
2022-09-06T13:25:53.373Z,100896.56
2022-09-06T13:28:36.199Z,100864.94
2022-09-06T13:31:20.396Z,100880.97
2022-09-06T13:34:01.933Z,100874.88
2022-09-06T13:36:35.281Z,100864.53
2022-09-06T13:39:07.448Z,100881.13
2022-09-06T13:41:42.653Z,100884.44
2022-09-06T13:44:17.464Z,100886.53
2022-09-06T13:46:56.581Z,100816.44
2022-09-06T13:49:30.619Z,100882.41
2022-09-06T13:52:05.096Z,100823.53
2022-09-06T13:54:38.065Z,100877.78
2022-09-06T13:57:11.199Z,100869.63
2022-09-06T13:59:44.323Z,100878.59
2022-09-06T14:02:19.148Z,100863.53
2022-09-06T14:04:51.223Z,100879.78
2022-09-06T14:07:23.340Z,100878.75
2022-09-06T14:09:56.181Z,100881.47
2022-09-06T14:12:31.033Z,100876.66
2022-09-06T14:15:05.847Z,100864.28
2022-09-06T14:17:38.826Z,100874.50
2022-09-06T14:20:11.596Z,100860.66
2022-09-06T14:22:44.001Z,100868.56
2022-09-06T14:25:16.184Z,100864.63
2022-09-06T14:27:50.104Z,100848.69
2022-09-06T14:30:22.559Z,100868.47
2022-09-06T14:32:54.748Z,100864.53
2022-09-06T14:35:27.366Z,100861.63
2022-09-06T14:38:00.027Z,100856.25
2022-09-06T14:40:35.915Z,100850.84
2022-09-06T14:43:08.470Z,100850.41
2022-09-06T14:45:41.252Z,100846.69
2022-09-06T14:48:13.395Z,100853.16
2022-09-06T14:50:45.034Z,100850.78
2022-09-06T14:53:38.986Z,100842.84
2022-09-06T14:56:12.529Z,100849.25
2022-09-06T14:58:45.427Z,100852.16
2022-09-06T15:01:28.187Z,100786.00
2022-09-06T15:04:03.984Z,100837.88
2022-09-06T15:06:38.300Z,100853.69
2022-09-06T15:09:12.692Z,100863.88
2022-09-06T15:11:47.387Z,100863.06
2022-09-06T15:14:25.911Z,100800.75
2022-09-06T15:17:01.208Z,100853.06
2022-09-06T15:19:35.317Z,100847.69
2022-09-06T15:22:08.821Z,100859.75
2022-09-06T15:24:42.021Z,100829.84
2022-09-06T15:27:14.297Z,100857.44
2022-09-06T15:29:46.890Z,100858.06
2022-09-06T15:32:19.293Z,100865.13
2022-09-06T15:34:51.412Z,100865.56
2022-09-06T15:37:23.737Z,100869.91
2022-09-06T15:39:55.979Z,100870.13
2022-09-06T15:42:28.147Z,100872.22
2022-09-06T15:44:59.902Z,100881.41
2022-09-06T15:47:31.860Z,100880.13
2022-09-06T15:50:03.848Z,100882.66
2022-09-06T15:52:36.347Z,100860.59
2022-09-06T15:55:27.123Z,100872.84
2022-09-06T15:57:59.206Z,100866.38
2022-09-06T16:00:31.126Z,100873.09
2022-09-06T16:03:03.208Z,100873.03
2022-09-06T16:08:31.146Z,100866.38
2022-09-06T16:11:12.706Z,100814.50
2022-09-06T16:13:46.638Z,100870.56
2022-09-06T16:16:19.775Z,100844.38
2022-09-06T16:18:53.591Z,100861.41
2022-09-06T16:21:28.279Z,100798.31
2022-09-06T16:24:05.904Z,100778.78
2022-09-06T16:26:43.588Z,100863.06
2022-09-06T16:29:17.839Z,100849.38
2022-09-06T16:31:50.020Z,100836.28
2022-09-06T16:34:21.829Z,100842.78
2022-09-06T16:36:54.253Z,100832.75
2022-09-06T16:39:26.398Z,100825.28
2022-09-06T16:41:58.587Z,100830.88
2022-09-06T16:44:30.164Z,100816.56
2022-09-06T16:47:05.362Z,100812.78
2022-09-06T16:49:37.757Z,100804.50
2022-09-06T16:52:09.367Z,100813.72
2022-09-06T16:54:41.396Z,100810.75
2022-09-06T16:57:12.981Z,100807.88
2022-09-06T16:59:45.122Z,100803.69
2022-09-06T17:02:17.586Z,100784.56
2022-09-06T17:04:51.092Z,100805.13
2022-09-06T17:07:23.176Z,100794.56
2022-09-06T17:09:54.784Z,100789.56
2022-09-06T17:12:26.786Z,100792.03
2022-09-06T17:14:58.441Z,100787.53
2022-09-06T17:17:30.601Z,100785.41
2022-09-06T17:20:02.698Z,100776.69
2022-09-06T17:22:34.743Z,100787.50
2022-09-06T17:25:06.769Z,100780.22
2022-09-06T17:27:39.101Z,100777.97
2022-09-06T17:30:11.970Z,100765.47
2022-09-06T17:32:44.112Z,100774.66
2022-09-06T17:35:16.726Z,100774.66
2022-09-06T17:37:49.582Z,100768.00
2022-09-06T17:40:21.688Z,100750.72
2022-09-06T17:42:54.269Z,100756.78
2022-09-06T17:45:26.962Z,100760.72
2022-09-06T17:47:59.503Z,100757.59
2022-09-06T17:50:34.972Z,100761.38
2022-09-06T17:53:06.925Z,100761.94
2022-09-06T17:55:46.276Z,100758.00
2022-09-06T17:58:18.535Z,100755.91
2022-09-06T18:00:52.010Z,100762.16
2022-09-06T18:03:24.601Z,100747.19
2022-09-06T18:05:56.180Z,100749.31
2022-09-06T18:08:28.786Z,100749.28
2022-09-06T18:11:00.979Z,100745.53
2022-09-06T18:13:32.929Z,100741.84
2022-09-06T18:16:06.670Z,100748.03
2022-09-06T18:18:39.288Z,100726.88
2022-09-06T18:21:12.022Z,100734.75
2022-09-06T18:23:44.166Z,100745.16
2022-09-06T18:26:16.136Z,100735.00
2022-09-06T18:28:48.142Z,100723.97
2022-09-06T18:31:22.658Z,100718.13
2022-09-06T18:33:56.970Z,100715.66
2022-09-06T18:36:32.184Z,100720.44
2022-09-06T18:39:06.309Z,100722.91
2022-09-06T18:41:56.565Z,100717.13
2022-09-06T18:44:36.207Z,100714.03
2022-09-06T18:47:11.382Z,100641.59
2022-09-06T18:49:44.330Z,100701.75
2022-09-06T18:52:17.528Z,100701.13
2022-09-06T18:54:50.849Z,100698.22
2022-09-06T18:57:23.165Z,100687.66
2022-09-06T18:59:55.322Z,100699.47
2022-09-06T19:02:28.981Z,100689.56
2022-09-06T19:05:01.066Z,100677.06
2022-09-06T19:07:32.656Z,100681.00
2022-09-06T19:10:05.928Z,100680.19
2022-09-06T19:12:38.048Z,100680.38
2022-09-06T19:15:12.187Z,100667.94
2022-09-06T19:17:44.490Z,100668.75
2022-09-06T19:20:16.655Z,100665.44
2022-09-06T19:22:51.165Z,100667.75
2022-09-06T19:25:23.413Z,100661.09
2022-09-06T19:27:55.608Z,100666.50
2022-09-06T19:30:27.189Z,100665.25
2022-09-06T19:32:59.188Z,100654.69
2022-09-06T19:35:31.753Z,100661.72
2022-09-06T19:38:03.892Z,100658.81
2022-09-06T19:40:36.313Z,100654.84
2022-09-06T19:43:08.550Z,100633.50
2022-09-06T19:45:40.784Z,100655.28
2022-09-06T19:48:12.917Z,100653.84
2022-09-06T19:50:45.740Z,100656.75
2022-09-06T19:53:17.831Z,100651.75
2022-09-06T19:55:50.175Z,100647.19
2022-09-06T19:58:22.345Z,100655.91
2022-09-06T20:00:59.875Z,100655.91
2022-09-06T20:03:31.914Z,100652.38
2022-09-06T20:06:04.203Z,100649.28
2022-09-06T20:08:37.908Z,100648.00
2022-09-06T20:11:11.876Z,100663.38
2022-09-06T20:13:44.258Z,100641.59
2022-09-06T20:16:19.277Z,100631.03
2022-09-06T20:18:53.858Z,100644.09
2022-09-06T20:21:25.989Z,100637.03
2022-09-06T20:24:00.516Z,100558.84
2022-09-06T20:26:32.787Z,100635.59
2022-09-06T20:29:05.961Z,100624.78
2022-09-06T20:31:39.115Z,100633.28
2022-09-06T20:34:13.594Z,100632.22
2022-09-06T20:36:45.685Z,100627.66
2022-09-06T20:39:17.867Z,100609.84
2022-09-06T20:41:49.706Z,100626.03
2022-09-06T20:44:21.941Z,100633.91
2022-09-06T20:46:54.166Z,100620.22
2022-09-06T20:49:26.696Z,100605.50
2022-09-06T20:51:58.316Z,100611.91
2022-09-06T20:54:31.007Z,100615.63
2022-09-06T20:57:03.100Z,100612.50
2022-09-06T20:59:35.330Z,100618.13
2022-09-06T21:02:07.691Z,100617.09
2022-09-06T21:04:39.757Z,100629.53
2022-09-06T21:07:11.470Z,100623.53
2022-09-06T21:09:43.848Z,100616.47
2022-09-06T21:12:15.976Z,100622.28
2022-09-06T21:14:47.727Z,100620.22
2022-09-06T21:17:19.814Z,100627.25
2022-09-06T21:19:52.151Z,100618.13
2022-09-06T21:22:24.278Z,100619.41
2022-09-06T21:24:55.980Z,100625.19
2022-09-06T21:27:28.002Z,100632.44
2022-09-06T21:29:59.718Z,100623.09
2022-09-06T21:32:31.783Z,100624.78
2022-09-06T21:35:03.974Z,100613.19
2022-09-06T21:37:35.706Z,100636.00
2022-09-06T21:40:08.347Z,100629.53
2022-09-06T21:42:40.671Z,100635.16
2022-09-06T21:45:14.423Z,100638.91
2022-09-06T21:47:46.577Z,100647.63
2022-09-06T21:50:19.186Z,100625.63
2022-09-06T21:52:51.298Z,100639.72
2022-09-06T21:55:22.975Z,100655.88
2022-09-06T21:57:54.965Z,100654.66
2022-09-06T22:00:27.170Z,100655.91
2022-09-06T22:02:59.483Z,100655.28
2022-09-06T22:05:31.754Z,100664.59
2022-09-06T22:08:04.470Z,100657.97
2022-09-06T22:10:36.794Z,100664.19
2022-09-06T22:13:09.376Z,100666.47
2022-09-06T22:15:42.053Z,100671.66
2022-09-06T22:18:14.993Z,100651.31
2022-09-06T22:20:47.527Z,100662.94
2022-09-06T22:23:19.789Z,100669.38
2022-09-06T22:26:05.468Z,100678.28
2022-09-06T22:28:39.193Z,100671.25
2022-09-06T22:31:12.488Z,100677.47
2022-09-06T22:33:46.188Z,100684.28
2022-09-06T22:36:18.864Z,100667.69
2022-09-06T22:38:54.516Z,100682.00
2022-09-06T22:41:28.960Z,100606.44
2022-09-06T22:44:05.379Z,100685.34
2022-09-06T22:46:38.700Z,100677.03
2022-09-06T22:49:10.962Z,100678.06
2022-09-06T22:51:43.559Z,100685.75
2022-09-06T22:54:15.793Z,100679.13
2022-09-06T22:56:47.998Z,100667.44
2022-09-06T22:59:19.897Z,100684.81
2022-09-06T23:01:52.178Z,100680.94
2022-09-06T23:04:24.761Z,100677.03
2022-09-06T23:06:56.348Z,100687.75
2022-09-06T23:09:28.579Z,100670.81
2022-09-06T23:12:00.698Z,100695.72
2022-09-06T23:14:32.878Z,100701.13
2022-09-06T23:17:05.237Z,100698.84
2022-09-06T23:19:37.358Z,100692.84
2022-09-06T23:22:09.129Z,100708.59
2022-09-06T23:24:41.342Z,100706.56
2022-09-06T23:27:13.968Z,100693.69
2022-09-06T23:29:47.432Z,100712.34
2022-09-06T23:32:19.531Z,100682.06
2022-09-06T23:34:51.651Z,100715.63
2022-09-06T23:37:23.701Z,100725.22
2022-09-06T23:39:55.793Z,100730.16
2022-09-06T23:42:27.431Z,100723.97
2022-09-06T23:45:00.502Z,100723.31
2022-09-06T23:47:32.603Z,100732.84
2022-09-06T23:50:04.774Z,100734.31
2022-09-06T23:52:36.907Z,100734.72
2022-09-06T23:55:10.831Z,100710.66
2022-09-06T23:57:42.926Z,100739.47
